Time;durP1;ratioP1;P1;durP2;ratioP2;P2;SDS_P1;SDS_P2;PMS_P1;PMS_P2;Temp;Humidity;BMP_temperature;BMP_pressure;BME280_temperature;BME280_humidity;BME280_pressure;Samples;Min_cycle;Max_cycle;Signal;HPM_P1;HPM_P2
2021/05/02 00:02:09;;;;;;;12.83;11.00;;;8.70;99.90;;;;;;5053714;28;20411;-69
2021/05/02 00:04:35;;;;;;;12.23;10.93;;;8.60;99.90;;;;;;5053244;28;20437;-69
2021/05/02 00:07:03;;;;;;;14.43;11.77;;;8.50;99.90;;;;;;5053903;28;20231;-69
2021/05/02 00:09:32;;;;;;;12.30;11.00;;;8.50;99.90;;;;;;5053835;28;20250;-69
2021/05/02 00:11:59;;;;;;;13.57;11.80;;;8.50;99.90;;;;;;5053908;28;20446;-69
2021/05/02 00:14:26;;;;;;;13.13;11.73;;;8.40;99.90;;;;;;5052587;28;20424;-70
2021/05/02 00:16:52;;;;;;;12.57;11.20;;;8.40;99.90;;;;;;5053755;28;20548;-69
2021/05/02 00:19:21;;;;;;;13.77;11.23;;;8.40;99.90;;;;;;5052838;28;20913;-69
2021/05/02 00:21:47;;;;;;;12.67;11.33;;;8.40;99.90;;;;;;5053116;28;20421;-70
2021/05/02 00:24:13;;;;;;;13.43;11.10;;;8.30;99.90;;;;;;5053046;28;20772;-69
2021/05/02 00:26:40;;;;;;;13.23;11.37;;;8.30;99.90;;;;;;5052611;28;20186;-69
2021/05/02 00:29:09;;;;;;;13.07;11.43;;;8.20;99.90;;;;;;5051586;28;20448;-70
2021/05/02 00:31:35;;;;;;;13.77;12.00;;;8.20;99.90;;;;;;5051994;28;20448;-69
2021/05/02 00:34:00;;;;;;;12.37;10.80;;;8.20;99.90;;;;;;5053269;28;20577;-69
2021/05/02 00:36:26;;;;;;;14.67;11.90;;;8.10;99.90;;;;;;5053078;28;20413;-69
2021/05/02 00:38:52;;;;;;;13.93;11.77;;;8.00;99.90;;;;;;5053068;28;20679;-69
2021/05/02 00:41:27;;;;;;;12.37;11.00;;;8.00;99.90;;;;;;5052526;28;20424;-69
2021/05/02 00:44:03;;;;;;;16.50;12.10;;;7.90;99.90;;;;;;5053458;28;20718;-69
2021/05/02 00:46:48;;;;;;;14.17;11.67;;;7.90;99.90;;;;;;5053117;28;20455;-69
2021/05/02 00:49:33;;;;;;;14.17;11.90;;;7.80;99.90;;;;;;5052512;28;20437;-69
2021/05/02 00:52:06;;;;;;;14.83;12.10;;;7.80;99.90;;;;;;5052750;28;20456;-69
2021/05/02 00:54:38;;;;;;;14.30;12.07;;;7.70;99.90;;;;;;5053713;28;20428;-70
2021/05/02 00:57:10;;;;;;;15.60;12.23;;;7.60;99.90;;;;;;5055611;28;20732;-69
2021/05/02 01:00:00;;;;;;;15.63;13.80;;;7.70;99.90;;;;;;5055069;28;20465;-69
2021/05/02 01:02:28;;;;;;;18.07;14.50;;;7.60;99.90;;;;;;5052274;28;20444;-70
2021/05/02 01:04:58;;;;;;;17.67;13.90;;;7.50;99.90;;;;;;5052638;28;20482;-70
2021/05/02 01:07:28;;;;;;;15.47;13.80;;;7.40;99.90;;;;;;5052907;28;20405;-69
2021/05/02 01:09:58;;;;;;;17.70;13.73;;;7.40;99.90;;;;;;5053118;28;20776;-69
2021/05/02 01:12:27;;;;;;;18.70;14.23;;;7.40;99.90;;;;;;5052686;28;20902;-70
2021/05/02 01:14:53;;;;;;;17.30;13.07;;;7.30;99.90;;;;;;5054033;28;20448;-70
2021/05/02 01:17:20;;;;;;;17.50;13.50;;;7.40;99.90;;;;;;5056020;28;20413;-69
2021/05/02 01:19:47;;;;;;;16.50;14.27;;;7.40;99.90;;;;;;5056295;28;20456;-70
2021/05/02 01:22:16;;;;;;;22.70;15.57;;;7.40;99.90;;;;;;5056024;28;20412;-69
2021/05/02 01:24:50;;;;;;;20.40;14.37;;;7.30;99.90;;;;;;5056739;28;20409;-69
2021/05/02 01:27:27;;;;;;;17.00;13.00;;;7.40;99.90;;;;;;5055429;28;20429;-70
2021/05/02 01:29:54;;;;;;;17.00;14.10;;;7.50;99.90;;;;;;5054658;28;20472;-70
2021/05/02 01:32:20;;;;;;;17.77;14.70;;;7.50;99.90;;;;;;5055879;28;20410;-70
2021/05/02 01:34:46;;;;;;;18.80;14.00;;;7.60;99.90;;;;;;5055266;28;20420;-70
2021/05/02 01:37:12;;;;;;;17.73;14.03;;;7.60;99.90;;;;;;5055986;28;20818;-69
2021/05/02 01:39:38;;;;;;;18.30;13.83;;;7.60;99.90;;;;;;5055850;28;20538;-69
2021/05/02 01:42:04;;;;;;;18.50;15.00;;;7.50;99.90;;;;;;5056045;28;20409;-70
2021/05/02 01:44:30;;;;;;;20.80;15.43;;;7.60;99.90;;;;;;5055694;28;20432;-70
2021/05/02 01:46:58;;;;;;;18.47;14.30;;;7.70;99.90;;;;;;5055843;28;20527;-69
2021/05/02 01:49:26;;;;;;;18.50;15.30;;;7.80;99.90;;;;;;5055665;28;20217;-69
2021/05/02 01:51:52;;;;;;;18.87;15.53;;;7.90;99.90;;;;;;5055643;28;20423;-70
2021/05/02 01:54:17;;;;;;;20.97;13.97;;;7.90;99.90;;;;;;5055538;28;20509;-70
2021/05/02 01:56:44;;;;;;;17.23;14.40;;;7.80;99.90;;;;;;5055816;28;20702;-69
2021/05/02 01:59:12;;;;;;;18.63;14.97;;;7.60;99.90;;;;;;5055442;28;20588;-69
2021/05/02 02:01:38;;;;;;;18.93;15.00;;;7.50;99.90;;;;;;5056025;28;20414;-69
2021/05/02 02:04:06;;;;;;;17.80;14.80;;;7.30;99.90;;;;;;5055512;28;20411;-70
2021/05/02 02:06:33;;;;;;;18.33;13.90;;;7.30;99.90;;;;;;5055525;28;20175;-69
2021/05/02 02:09:02;;;;;;;20.07;16.40;;;7.30;99.90;;;;;;5054590;28;20448;-70
2021/05/02 02:11:31;;;;;;;22.73;13.93;;;7.20;99.90;;;;;;5055269;28;20478;-70
2021/05/02 02:13:57;;;;;;;18.07;14.33;;;7.30;99.90;;;;;;5055484;28;20427;-69
2021/05/02 02:16:23;;;;;;;17.50;14.70;;;7.30;99.90;;;;;;5055087;28;20425;-69
2021/05/02 02:18:49;;;;;;;16.20;13.17;;;7.40;99.90;;;;;;5054739;28;20544;-69
2021/05/02 02:21:18;;;;;;;14.03;12.53;;;7.50;99.90;;;;;;5054673;28;20492;-70
2021/05/02 02:23:51;;;;;;;14.03;11.50;;;7.40;99.90;;;;;;5055276;28;20168;-69
2021/05/02 02:26:24;;;;;;;18.17;13.77;;;7.40;99.90;;;;;;5054522;28;20853;-70
2021/05/02 02:28:53;;;;;;;17.20;13.30;;;7.20;99.90;;;;;;5054351;28;20437;-69
2021/05/02 02:31:21;;;;;;;16.83;12.90;;;7.30;99.90;;;;;;5053816;28;20453;-68
2021/05/02 02:33:47;;;;;;;16.33;11.63;;;7.30;99.90;;;;;;5052404;28;20672;-69
2021/05/02 02:36:14;;;;;;;15.83;14.13;;;7.30;99.90;;;;;;5055082;28;20448;-69
2021/05/02 02:38:42;;;;;;;16.97;13.27;;;7.30;99.90;;;;;;5054002;28;20264;-69
2021/05/02 02:41:16;;;;;;;17.40;11.60;;;7.20;99.90;;;;;;5055086;28;20445;-69
2021/05/02 02:43:51;;;;;;;16.60;13.40;;;7.20;99.90;;;;;;5054798;28;20463;-68
2021/05/02 02:46:17;;;;;;;18.80;12.73;;;7.30;99.90;;;;;;5054528;28;20432;-69
2021/05/02 02:48:47;;;;;;;15.70;12.03;;;7.30;99.90;;;;;;5054134;28;20448;-69
2021/05/02 02:51:16;;;;;;;14.27;12.10;;;7.30;99.90;;;;;;5054526;28;20448;-69
2021/05/02 02:53:42;;;;;;;11.80;9.00;;;7.40;99.90;;;;;;5054678;28;20501;-69
2021/05/02 02:56:14;;;;;;;25.37;10.67;;;7.30;99.90;;;;;;5055700;28;20493;-68
2021/05/02 02:58:46;;;;;;;10.03;7.60;;;7.30;99.90;;;;;;5055392;28;20452;-68
2021/05/02 03:01:12;;;;;;;10.20;7.83;;;7.30;99.90;;;;;;5054757;28;20873;-68
2021/05/02 03:03:42;;;;;;;14.23;8.83;;;7.20;99.90;;;;;;5053001;28;20844;-68
2021/05/02 03:06:08;;;;;;;8.80;7.80;;;7.00;99.90;;;;;;5053179;28;20416;-69
2021/05/02 03:08:36;;;;;;;8.70;7.40;;;7.00;99.90;;;;;;5053915;28;20433;-69
2021/05/02 03:11:02;;;;;;;9.20;7.07;;;7.00;99.90;;;;;;5054117;28;20491;-69
2021/05/02 03:13:28;;;;;;;10.20;8.00;;;7.10;99.90;;;;;;5054068;28;20424;-69
2021/05/02 03:15:53;;;;;;;11.77;7.80;;;7.10;99.90;;;;;;5054437;28;20413;-69
2021/05/02 03:18:51;;;;;;;11.30;8.40;;;7.10;99.90;;;;;;5054186;28;20214;-69
2021/05/02 03:21:21;;;;;;;8.83;7.20;;;7.10;99.90;;;;;;5054775;28;20177;-69
2021/05/02 03:23:51;;;;;;;10.27;7.63;;;7.10;99.90;;;;;;5056015;28;20503;-69
2021/05/02 03:26:18;;;;;;;9.60;7.90;;;7.20;99.90;;;;;;5055123;28;20417;-70
2021/05/02 03:28:49;;;;;;;10.67;8.07;;;7.10;99.90;;;;;;5053927;28;20800;-69
2021/05/02 03:31:16;;;;;;;9.83;6.80;;;7.20;99.90;;;;;;5051058;28;20988;-69
2021/05/02 03:33:47;;;;;;;10.10;6.80;;;7.30;99.90;;;;;;5052293;28;20483;-69
2021/05/02 03:36:19;;;;;;;12.90;8.70;;;7.40;99.90;;;;;;5053120;28;20452;-69
2021/05/02 03:38:47;;;;;;;10.97;8.40;;;7.40;99.90;;;;;;5054283;28;20464;-69
2021/05/02 03:41:14;;;;;;;11.80;9.33;;;7.30;99.90;;;;;;5053298;28;20459;-69
2021/05/02 03:43:41;;;;;;;10.50;9.03;;;7.20;99.90;;;;;;5054147;28;20421;-69
2021/05/02 03:46:22;;;;;;;13.13;9.70;;;7.10;99.90;;;;;;5053733;28;20490;-69
2021/05/02 03:48:51;;;;;;;12.60;10.00;;;7.20;99.90;;;;;;5053029;28;20795;-70
2021/05/02 03:51:16;;;;;;;17.30;12.17;;;7.30;99.90;;;;;;5053613;28;20425;-69
2021/05/02 03:53:42;;;;;;;18.47;13.90;;;7.30;99.90;;;;;;5053549;28;20870;-69
2021/05/02 03:56:07;;;;;;;19.23;15.40;;;7.30;99.90;;;;;;5053453;28;20189;-69
2021/05/02 03:58:33;;;;;;;19.70;16.10;;;7.30;99.90;;;;;;5053312;28;20201;-70
2021/05/02 04:00:58;;;;;;;24.77;17.20;;;7.40;99.90;;;;;;5052068;28;20170;-69
2021/05/02 04:03:24;;;;;;;28.23;18.87;;;7.50;99.90;;;;;;5053433;28;20572;-69
2021/05/02 04:05:49;;;;;;;28.87;19.50;;;7.60;99.90;;;;;;5053271;28;20167;-70
2021/05/02 04:08:15;;;;;;;25.87;19.60;;;7.60;99.90;;;;;;5053203;28;20197;-69
2021/05/02 04:10:40;;;;;;;27.70;21.20;;;7.80;99.90;;;;;;5053093;28;20210;-69
2021/05/02 04:13:06;;;;;;;26.70;20.20;;;7.80;99.90;;;;;;5053005;28;20257;-69
2021/05/02 04:15:31;;;;;;;27.20;21.20;;;7.80;99.90;;;;;;5053778;28;20180;-69
2021/05/02 04:17:57;;;;;;;29.10;19.73;;;7.80;99.90;;;;;;5051991;28;20561;-70
2021/05/02 04:20:22;;;;;;;25.97;21.40;;;7.90;99.90;;;;;;5053024;28;20302;-69
2021/05/02 04:22:48;;;;;;;27.83;19.57;;;8.00;99.90;;;;;;5053541;28;20164;-69
2021/05/02 04:25:14;;;;;;;26.90;20.23;;;7.80;99.90;;;;;;5052978;28;20618;-69
2021/05/02 04:27:39;;;;;;;31.13;20.67;;;7.70;99.90;;;;;;5053619;28;20436;-69
2021/05/02 04:30:06;;;;;;;26.60;20.70;;;7.70;99.90;;;;;;5053289;28;20210;-69
2021/05/02 04:32:32;;;;;;;29.50;19.73;;;7.80;99.90;;;;;;5053320;28;20263;-70
2021/05/02 04:34:57;;;;;;;25.63;19.97;;;7.70;99.90;;;;;;5052946;28;20467;-70
2021/05/02 04:37:23;;;;;;;31.40;20.47;;;7.60;99.90;;;;;;5052663;28;20263;-70
2021/05/02 04:39:48;;;;;;;30.43;19.70;;;7.60;99.90;;;;;;5053580;28;20678;-70
2021/05/02 04:42:14;;;;;;;28.80;21.00;;;7.60;99.90;;;;;;5053474;28;20170;-70
2021/05/02 04:44:39;;;;;;;27.03;20.17;;;7.60;99.90;;;;;;5052920;28;20523;-69
2021/05/02 04:47:05;;;;;;;25.13;20.13;;;7.60;99.90;;;;;;5052887;28;20635;-70
2021/05/02 04:49:31;;;;;;;30.50;22.00;;;7.70;99.90;;;;;;5053171;28;20622;-69
2021/05/02 04:51:57;;;;;;;24.53;20.00;;;7.80;99.90;;;;;;5057272;28;20197;-70
2021/05/02 04:54:22;;;;;;;26.70;20.17;;;7.90;99.90;;;;;;5056728;28;20181;-70
2021/05/02 04:56:48;;;;;;;24.27;18.87;;;8.00;99.90;;;;;;5056416;28;20600;-70
2021/05/02 04:59:14;;;;;;;23.47;18.80;;;8.00;99.90;;;;;;5056458;28;20232;-69
2021/05/02 05:01:42;;;;;;;27.17;20.10;;;8.00;99.90;;;;;;5056504;28;20411;-69
2021/05/02 05:04:07;;;;;;;31.37;21.60;;;8.10;99.90;;;;;;5056237;28;20534;-69
2021/05/02 05:06:33;;;;;;;28.20;22.47;;;8.00;99.90;;;;;;5056442;28;20427;-70
2021/05/02 05:08:59;;;;;;;28.30;21.10;;;7.80;99.90;;;;;;5056184;28;20190;-69
2021/05/02 05:11:25;;;;;;;27.30;20.87;;;7.60;99.90;;;;;;5056906;28;20758;-69
2021/05/02 05:13:50;;;;;;;27.10;21.50;;;7.70;99.90;;;;;;5056039;28;20413;-69
2021/05/02 05:16:16;;;;;;;24.73;19.67;;;7.90;99.90;;;;;;5056409;28;20171;-70
2021/05/02 05:18:42;;;;;;;25.83;19.83;;;7.80;99.90;;;;;;5055868;28;21072;-69
2021/05/02 05:21:08;;;;;;;23.70;19.13;;;7.90;99.90;;;;;;5056493;28;20182;-69
2021/05/02 05:23:33;;;;;;;28.23;19.67;;;7.90;99.90;;;;;;5056210;28;20870;-69
2021/05/02 05:25:59;;;;;;;22.77;18.37;;;7.70;99.90;;;;;;5056994;28;20185;-70
2021/05/02 05:28:25;;;;;;;26.40;20.10;;;7.80;99.90;;;;;;5055873;28;20606;-69
2021/05/02 05:30:52;;;;;;;24.70;17.60;;;7.90;99.90;;;;;;5046609;28;20260;-69
2021/05/02 05:33:17;;;;;;;21.97;17.63;;;8.00;99.90;;;;;;5057071;28;20188;-69
2021/05/02 05:35:43;;;;;;;25.73;19.10;;;8.00;99.90;;;;;;5058535;28;20409;-69
2021/05/02 05:38:09;;;;;;;25.50;19.70;;;7.80;99.90;;;;;;5058657;28;20457;-69
2021/05/02 05:40:35;;;;;;;28.70;20.17;;;7.90;99.90;;;;;;5058411;28;20211;-69
2021/05/02 05:43:04;;;;;;;24.37;19.87;;;7.90;99.90;;;;;;5057587;28;20185;-69
2021/05/02 05:45:31;;;;;;;26.40;19.83;;;8.10;99.90;;;;;;5056503;28;20440;-69
2021/05/02 05:47:57;;;;;;;30.00;20.40;;;8.10;99.90;;;;;;5056921;28;20502;-69
2021/05/02 05:50:23;;;;;;;24.90;19.83;;;8.20;99.90;;;;;;5057536;28;20924;-69
2021/05/02 05:52:50;;;;;;;28.50;20.30;;;8.20;99.90;;;;;;5057652;28;20185;-69
2021/05/02 05:55:16;;;;;;;25.30;18.63;;;8.20;99.90;;;;;;5056080;28;20434;-69
2021/05/02 05:57:45;;;;;;;26.97;20.00;;;8.20;99.90;;;;;;5056239;28;20435;-69
2021/05/02 06:00:11;;;;;;;23.10;17.57;;;8.10;99.90;;;;;;5055283;28;20429;-71
2021/05/02 06:02:37;;;;;;;24.10;17.73;;;8.10;99.90;;;;;;5054037;28;20796;-69
2021/05/02 06:05:03;;;;;;;27.50;18.10;;;8.00;99.90;;;;;;5055582;28;20413;-70
2021/05/02 06:07:29;;;;;;;20.83;16.50;;;8.00;99.90;;;;;;5055662;28;20206;-69
2021/05/02 06:09:55;;;;;;;20.97;16.50;;;8.00;99.90;;;;;;5055981;28;20476;-70
2021/05/02 06:12:20;;;;;;;23.40;16.50;;;8.10;99.90;;;;;;5056572;28;20177;-70
2021/05/02 06:14:46;;;;;;;18.87;15.90;;;8.00;99.90;;;;;;5055727;28;20259;-69
2021/05/02 06:17:12;;;;;;;22.27;16.00;;;8.00;99.90;;;;;;5055502;28;20201;-69
2021/05/02 06:19:38;;;;;;;18.47;15.30;;;8.00;99.90;;;;;;5055351;28;20210;-69
2021/05/02 06:22:04;;;;;;;18.60;15.37;;;8.00;99.90;;;;;;5055099;28;20209;-70
2021/05/02 06:24:29;;;;;;;18.50;14.40;;;8.10;99.90;;;;;;5054829;28;20532;-69
2021/05/02 06:26:55;;;;;;;18.20;13.83;;;7.90;99.90;;;;;;5054697;28;20209;-70
2021/05/02 06:29:21;;;;;;;19.00;14.67;;;7.70;99.90;;;;;;5054829;28;20191;-69
2021/05/02 06:31:47;;;;;;;18.20;13.73;;;7.60;99.90;;;;;;5054252;28;20436;-69
2021/05/02 06:34:12;;;;;;;16.07;13.07;;;7.50;99.90;;;;;;5052057;28;20264;-69
2021/05/02 06:36:38;;;;;;;16.47;13.43;;;7.60;99.90;;;;;;5047560;28;20192;-69
2021/05/02 06:39:04;;;;;;;17.60;12.73;;;7.70;99.90;;;;;;5035167;28;20236;-69
2021/05/02 06:41:30;;;;;;;13.53;10.30;;;7.60;99.90;;;;;;5036859;28;20827;-70
2021/05/02 06:43:55;;;;;;;15.63;10.83;;;7.60;99.90;;;;;;5042682;28;20434;-70
2021/05/02 06:46:28;;;;;;;13.90;11.33;;;7.50;99.90;;;;;;5054141;28;20198;-70
2021/05/02 06:49:05;;;;;;;12.17;10.70;;;7.60;99.90;;;;;;5053691;28;20217;-70
2021/05/02 06:51:32;;;;;;;14.50;10.30;;;7.70;99.90;;;;;;5048574;28;20421;-70
2021/05/02 06:53:58;;;;;;;14.60;10.70;;;7.90;99.90;;;;;;5045189;28;20428;-70
2021/05/02 06:56:25;;;;;;;15.83;11.60;;;8.10;99.90;;;;;;5048243;28;20495;-70
2021/05/02 06:58:52;;;;;;;11.43;9.80;;;8.30;99.90;;;;;;5043937;28;20546;-70
2021/05/02 07:01:18;;;;;;;11.50;8.47;;;8.40;99.90;;;;;;5045945;28;20444;-70
2021/05/02 07:03:44;;;;;;;10.53;8.37;;;8.40;99.90;;;;;;5034556;28;20396;-70
2021/05/02 07:06:10;;;;;;;10.20;7.97;;;8.20;99.90;;;;;;5039881;28;20462;-70
2021/05/02 07:08:35;;;;;;;15.03;9.13;;;8.10;99.90;;;;;;5053997;28;20176;-70
2021/05/02 07:11:02;;;;;;;12.53;8.43;;;8.20;99.90;;;;;;5054540;28;20196;-70
2021/05/02 07:13:28;;;;;;;10.63;7.80;;;8.40;99.90;;;;;;5043841;28;20940;-70
2021/05/02 07:15:54;;;;;;;9.23;6.83;;;8.50;99.90;;;;;;5032053;28;20494;-70
2021/05/02 07:18:20;;;;;;;12.53;8.00;;;8.70;99.90;;;;;;5039923;28;20472;-70
2021/05/02 07:20:48;;;;;;;10.27;7.73;;;8.40;99.90;;;;;;5042334;28;20426;-70
2021/05/02 07:23:14;;;;;;;10.80;7.77;;;8.20;99.90;;;;;;5049911;28;20174;-70
2021/05/02 07:25:40;;;;;;;12.53;8.00;;;8.00;99.90;;;;;;5050325;28;20749;-70
2021/05/02 07:28:05;;;;;;;8.73;7.40;;;8.00;99.90;;;;;;5049756;28;20441;-70
2021/05/02 07:30:31;;;;;;;10.03;7.90;;;8.00;99.90;;;;;;5050165;28;20222;-70
2021/05/02 07:32:56;;;;;;;10.60;8.17;;;8.10;99.90;;;;;;5049195;28;20564;-70
2021/05/02 07:35:22;;;;;;;10.80;8.00;;;8.10;99.90;;;;;;5049163;28;20600;-70
2021/05/02 07:37:47;;;;;;;10.00;8.73;;;8.00;99.90;;;;;;5056173;28;20639;-70
2021/05/02 07:40:13;;;;;;;7.93;6.73;;;8.00;99.90;;;;;;5052241;28;20212;-70
2021/05/02 07:42:39;;;;;;;9.40;6.20;;;8.10;99.90;;;;;;5068888;28;20181;-70
2021/05/02 07:45:06;;;;;;;7.07;6.40;;;8.10;99.90;;;;;;5064157;28;20816;-70
2021/05/02 07:47:32;;;;;;;13.43;6.43;;;8.20;99.90;;;;;;5049982;28;20566;-70
2021/05/02 07:49:58;;;;;;;7.87;5.70;;;8.30;99.60;;;;;;5051193;28;20504;-70
2021/05/02 07:52:24;;;;;;;9.00;5.33;;;8.50;99.10;;;;;;5051012;28;20433;-70
2021/05/02 07:54:50;;;;;;;5.37;4.83;;;8.40;98.20;;;;;;5046820;28;20683;-70
2021/05/02 07:57:16;;;;;;;9.27;6.20;;;8.40;98.30;;;;;;5043544;28;20436;-70
2021/05/02 07:59:44;;;;;;;6.10;5.20;;;8.40;98.00;;;;;;5049720;28;20513;-72
2021/05/02 08:02:09;;;;;;;5.17;4.57;;;8.30;98.20;;;;;;5052717;28;20421;-70
2021/05/02 08:04:39;;;;;;;6.13;4.00;;;8.20;98.30;;;;;;5049463;28;20432;-70
2021/05/02 08:07:08;;;;;;;7.30;4.60;;;8.10;98.40;;;;;;5042413;28;20179;-70
2021/05/02 08:09:34;;;;;;;4.80;4.40;;;8.10;98.60;;;;;;5049683;28;20498;-72
2021/05/02 08:12:01;;;;;;;8.80;4.77;;;8.10;98.60;;;;;;5062516;28;20427;-71
2021/05/02 08:14:27;;;;;;;6.00;3.90;;;8.20;98.50;;;;;;5048556;28;20456;-70
2021/05/02 08:16:53;;;;;;;5.60;4.00;;;8.20;97.90;;;;;;5049895;28;20443;-70
2021/05/02 08:19:19;;;;;;;6.80;4.07;;;8.30;97.60;;;;;;5048419;28;20463;-70
2021/05/02 08:21:45;;;;;;;4.27;3.47;;;8.50;97.60;;;;;;5049860;28;20424;-70
2021/05/02 08:24:12;;;;;;;4.13;3.60;;;8.70;96.50;;;;;;5050345;28;20197;-70
2021/05/02 08:26:38;;;;;;;6.50;5.77;;;8.90;96.20;;;;;;5062726;28;20195;-70
2021/05/02 08:29:03;;;;;;;7.40;6.23;;;9.20;97.00;;;;;;5048261;28;20438;-70
2021/05/02 08:31:29;;;;;;;8.30;7.60;;;9.40;97.30;;;;;;5059334;28;20480;-70
2021/05/02 08:33:55;;;;;;;7.37;6.23;;;9.60;96.90;;;;;;5052934;28;21152;-70
2021/05/02 08:36:21;;;;;;;7.37;6.30;;;9.80;96.60;;;;;;5053450;28;20518;-70
2021/05/02 08:38:46;;;;;;;8.37;6.77;;;9.70;96.00;;;;;;5052763;28;20279;-70
2021/05/02 08:41:13;;;;;;;10.10;6.90;;;9.70;96.00;;;;;;5053127;28;20319;-70
2021/05/02 08:43:39;;;;;;;8.53;7.47;;;9.50;96.00;;;;;;5053213;28;20189;-70
2021/05/02 08:46:05;;;;;;;8.47;7.20;;;9.20;96.10;;;;;;5058691;28;20969;-69
2021/05/02 08:48:31;;;;;;;9.03;8.13;;;8.90;96.80;;;;;;5065106;28;20428;-70
2021/05/02 08:50:58;;;;;;;8.80;7.90;;;8.80;97.30;;;;;;5052906;28;20642;-70
2021/05/02 08:53:25;;;;;;;8.97;7.30;;;8.90;97.40;;;;;;5052088;28;20994;-71
2021/05/02 08:55:55;;;;;;;8.10;7.13;;;9.30;97.30;;;;;;5052685;28;20849;-71
2021/05/02 08:58:23;;;;;;;10.40;7.60;;;9.50;96.00;;;;;;5050254;28;20482;-71
2021/05/02 09:00:50;;;;;;;7.20;6.50;;;9.50;95.60;;;;;;5043710;28;20439;-71
2021/05/02 09:03:17;;;;;;;7.83;7.03;;;9.50;95.30;;;;;;5048368;28;21581;-69
2021/05/02 09:05:47;;;;;;;6.20;5.70;;;9.60;95.50;;;;;;5047970;28;20485;-70
2021/05/02 09:08:32;;;;;;;7.30;5.90;;;9.80;94.90;;;;;;5052196;28;20479;-69
2021/05/02 09:11:02;;;;;;;7.33;4.00;;;10.10;93.00;;;;;;5047268;28;20740;-70
2021/05/02 09:13:28;;;;;;;4.00;3.60;;;10.00;90.90;;;;;;5052524;28;20489;-69
2021/05/02 09:16:03;;;;;;;5.50;5.00;;;10.10;90.80;;;;;;5052218;28;20420;-70
2021/05/02 09:18:49;;;;;;;5.10;4.60;;;10.00;90.30;;;;;;5051373;28;20462;-69
2021/05/02 09:21:26;;;;;;;5.60;5.03;;;9.70;91.80;;;;;;5052519;28;20416;-71
2021/05/02 09:23:54;;;;;;;5.97;5.43;;;9.60;92.70;;;;;;5051460;28;20419;-69
2021/05/02 09:26:35;;;;;;;6.87;5.20;;;9.50;92.30;;;;;;5052142;28;20430;-70
2021/05/02 09:29:06;;;;;;;7.63;5.00;;;9.50;92.10;;;;;;5053592;28;20445;-69
2021/05/02 09:31:33;;;;;;;6.67;4.13;;;9.10;92.70;;;;;;5053827;28;20444;-71
2021/05/02 09:34:17;;;;;;;5.43;3.13;;;9.00;92.20;;;;;;5052955;28;20423;-70
2021/05/02 09:36:56;;;;;;;4.43;3.60;;;9.20;91.70;;;;;;5058803;28;20539;-69
2021/05/02 09:39:55;;;;;;;3.87;3.47;;;9.30;91.80;;;;;;5065502;28;20493;-69
2021/05/02 09:42:24;;;;;;;6.63;3.80;;;9.50;91.50;;;;;;5062561;28;20426;-70
2021/05/02 09:44:54;;;;;;;4.67;4.23;;;9.50;92.00;;;;;;5056126;28;20423;-70
2021/05/02 09:47:31;;;;;;;5.57;4.83;;;9.40;93.30;;;;;;5056962;28;20417;-71
2021/05/02 09:50:08;;;;;;;5.43;4.93;;;9.20;94.10;;;;;;5051841;28;20450;-69
2021/05/02 09:52:44;;;;;;;5.03;4.60;;;9.20;95.00;;;;;;5053266;28;20413;-69
2021/05/02 09:55:22;;;;;;;7.93;4.80;;;9.30;94.70;;;;;;5052349;28;20433;-70
2021/05/02 09:57:58;;;;;;;6.00;4.90;;;9.30;94.50;;;;;;5051491;28;20424;-70
2021/05/02 10:00:53;;;;;;;5.90;5.40;;;9.50;94.70;;;;;;5045429;28;20770;-70
2021/05/02 10:03:21;;;;;;;4.80;4.40;;;10.00;94.20;;;;;;5039054;28;20433;-72
2021/05/02 10:05:59;;;;;;;4.93;4.40;;;10.30;93.50;;;;;;5049619;28;20429;-71
2021/05/02 10:08:26;;;;;;;5.50;4.73;;;10.50;93.30;;;;;;5042761;28;20411;-71
2021/05/02 10:10:53;;;;;;;5.63;5.07;;;10.50;92.40;;;;;;5047404;28;20937;-71
2021/05/02 10:13:19;;;;;;;4.27;3.97;;;10.30;91.20;;;;;;5051522;28;20471;-71
2021/05/02 10:15:45;;;;;;;5.60;4.40;;;9.90;92.00;;;;;;5051221;28;20441;-71
2021/05/02 10:18:11;;;;;;;4.60;4.20;;;9.80;92.50;;;;;;5051320;28;20213;-71
2021/05/02 10:20:36;;;;;;;4.20;3.90;;;9.60;94.00;;;;;;5051154;28;20989;-70
2021/05/02 10:23:03;;;;;;;4.87;3.40;;;9.50;95.00;;;;;;5051411;28;20620;-70
2021/05/02 10:25:30;;;;;;;3.80;3.50;;;9.50;94.00;;;;;;5051005;28;20181;-71
2021/05/02 10:27:56;;;;;;;3.73;3.27;;;9.70;93.50;;;;;;5050463;28;20446;-71
2021/05/02 10:30:32;;;;;;;5.20;3.50;;;9.90;92.90;;;;;;5050973;28;20831;-71
2021/05/02 10:33:14;;;;;;;3.97;3.63;;;10.20;91.80;;;;;;5050377;28;20425;-71
2021/05/02 10:35:58;;;;;;;3.20;2.90;;;10.30;91.30;;;;;;5051084;28;20420;-69
2021/05/02 10:38:50;;;;;;;4.57;3.53;;;10.40;90.60;;;;;;5050670;28;20769;-71
2021/05/02 10:41:36;;;;;;;4.67;3.43;;;10.50;89.40;;;;;;5051098;28;20466;-69
2021/05/02 10:44:07;;;;;;;3.40;2.80;;;10.50;84.20;;;;;;5050932;28;20421;-70
2021/05/02 10:46:42;;;;;;;3.43;3.13;;;10.30;84.50;;;;;;5039048;28;20447;-68
2021/05/02 10:49:09;;;;;;;3.53;3.00;;;10.30;85.70;;;;;;5049396;28;20455;-69
2021/05/02 10:51:35;;;;;;;2.90;2.70;;;10.30;85.50;;;;;;5050720;28;20432;-70
2021/05/02 10:54:02;;;;;;;6.07;3.00;;;10.20;86.20;;;;;;5050004;28;20512;-70
2021/05/02 10:56:45;;;;;;;8.07;3.43;;;10.20;87.00;;;;;;5048184;28;20212;-71
2021/05/02 10:59:11;;;;;;;3.27;2.80;;;10.40;86.90;;;;;;5046020;28;20471;-71
2021/05/02 11:01:38;;;;;;;4.70;3.37;;;10.50;85.40;;;;;;5050613;28;20447;-71
2021/05/02 11:04:04;;;;;;;3.03;2.73;;;10.60;84.70;;;;;;5050812;28;20417;-70
2021/05/02 11:06:39;;;;;;;3.47;2.50;;;10.60;83.70;;;;;;5050523;28;20435;-70
2021/05/02 11:09:10;;;;;;;5.57;3.07;;;10.50;83.30;;;;;;5048872;28;20444;-70
2021/05/02 11:11:41;;;;;;;5.90;3.00;;;10.50;83.80;;;;;;5050948;28;20519;-70
2021/05/02 11:14:26;;;;;;;7.90;3.10;;;10.50;84.10;;;;;;5050815;28;20761;-70
2021/05/02 11:16:58;;;;;;;3.17;2.60;;;10.60;83.40;;;;;;5050307;28;20432;-70
2021/05/02 11:19:24;;;;;;;2.83;2.60;;;10.70;83.10;;;;;;5051920;28;20952;-70
2021/05/02 11:21:50;;;;;;;5.97;3.10;;;10.60;82.70;;;;;;5055010;28;20451;-70
2021/05/02 11:24:16;;;;;;;5.20;2.70;;;10.60;82.40;;;;;;5053542;28;20424;-70
2021/05/02 11:26:49;;;;;;;4.00;2.37;;;10.70;82.40;;;;;;5052433;28;20421;-71
2021/05/02 11:29:17;;;;;;;2.57;2.37;;;10.80;80.30;;;;;;5052285;28;20451;-69
2021/05/02 11:31:44;;;;;;;5.10;2.70;;;10.70;77.20;;;;;;5053283;28;20423;-69
2021/05/02 11:34:09;;;;;;;3.40;2.57;;;10.60;76.20;;;;;;5046945;28;20515;-70
2021/05/02 11:36:43;;;;;;;3.17;2.10;;;10.60;76.60;;;;;;5050668;28;20535;-71
2021/05/02 11:39:30;;;;;;;3.30;2.77;;;10.70;78.60;;;;;;5050661;28;20214;-69
2021/05/02 11:42:03;;;;;;;4.67;2.63;;;10.60;79.30;;;;;;5048885;28;20422;-69
2021/05/02 11:44:28;;;;;;;4.47;2.60;;;10.60;78.20;;;;;;5053460;28;20412;-67
2021/05/02 11:46:55;;;;;;;3.17;2.30;;;10.60;78.70;;;;;;5058919;28;21024;-69
2021/05/02 11:49:20;;;;;;;4.13;2.97;;;10.70;79.80;;;;;;5049383;28;20234;-69
2021/05/02 11:51:58;;;;;;;2.70;2.50;;;10.80;79.70;;;;;;5048973;28;20849;-71
2021/05/02 11:54:23;;;;;;;2.97;2.47;;;11.10;79.90;;;;;;5048563;28;20188;-70
2021/05/02 11:56:52;;;;;;;3.10;2.20;;;11.00;77.80;;;;;;5050307;28;20412;-67
2021/05/02 11:59:18;;;;;;;4.10;2.47;;;10.90;77.40;;;;;;5048635;28;20624;-68
2021/05/02 12:01:48;;;;;;;3.10;2.80;;;10.90;76.00;;;;;;5046152;28;20512;-70
2021/05/02 12:04:19;;;;;;;3.37;3.03;;;10.80;75.70;;;;;;5043316;28;20206;-69
2021/05/02 12:06:46;;;;;;;2.60;2.37;;;10.70;74.70;;;;;;5038634;28;20945;-69
2021/05/02 12:09:13;;;;;;;3.60;1.97;;;10.80;74.20;;;;;;5048180;28;20532;-69
2021/05/02 12:11:41;;;;;;;3.42;2.50;;;10.70;74.00;;;;;;5047083;28;20851;-69
2021/05/02 12:14:07;;;;;;;5.67;2.47;;;10.80;73.90;;;;;;5043755;28;20202;-69
2021/05/02 12:16:35;;;;;;;3.53;2.80;;;10.70;73.00;;;;;;5038683;28;21070;-70
2021/05/02 12:19:03;;;;;;;3.80;2.53;;;10.60;73.10;;;;;;5047901;28;20559;-69
2021/05/02 12:21:32;;;;;;;3.80;2.75;;;10.60;74.10;;;;;;5047949;28;20774;-69
2021/05/02 12:24:13;;;;;;;3.47;2.83;;;10.80;73.80;;;;;;5049350;28;20305;-70
2021/05/02 12:26:56;;;;;;;4.37;2.53;;;10.90;74.40;;;;;;5049482;28;20470;-70
2021/05/02 12:29:24;;;;;;;2.40;2.20;;;11.10;73.70;;;;;;5049063;28;20503;-69
2021/05/02 12:31:55;;;;;;;3.70;2.47;;;10.90;73.80;;;;;;5046894;28;20946;-69
2021/05/02 12:34:24;;;;;;;2.50;2.40;;;10.80;73.90;;;;;;5051197;28;20459;-69
2021/05/02 12:36:50;;;;;;;2.80;2.60;;;10.70;74.00;;;;;;5043902;28;20441;-70
2021/05/02 12:39:16;;;;;;;2.73;2.50;;;10.80;74.50;;;;;;5044910;28;20495;-69
2021/05/02 12:41:42;;;;;;;2.90;2.70;;;10.70;74.10;;;;;;5036691;28;20263;-69
2021/05/02 12:44:20;;;;;;;4.20;2.80;;;10.60;75.10;;;;;;5045472;28;20543;-69
2021/05/02 12:46:48;;;;;;;3.20;2.90;;;10.60;75.90;;;;;;5061323;28;21576;-70
2021/05/02 12:49:25;;;;;;;2.93;2.63;;;10.80;76.60;;;;;;5047143;28;20452;-70
2021/05/02 12:51:57;;;;;;;3.30;3.00;;;11.10;76.40;;;;;;5063419;28;20425;-69